sensor_id;sensor_type;location;lat;lon;timestamp;pressure;altitude;pressure_sealevel;temperature;humidity
73151;BME280;61354;50.758;6.106;2023-10-09T00:00:19;99647.44;;;16.65;100.00
73151;BME280;61354;50.758;6.106;2023-10-09T00:03:04;99648.66;;;16.68;100.00
73151;BME280;61354;50.758;6.106;2023-10-09T00:05:34;99649.03;;;16.66;100.00
73151;BME280;61354;50.758;6.106;2023-10-09T00:08:15;99642.66;;;16.70;100.00
73151;BME280;61354;50.758;6.106;2023-10-09T00:10:51;99652.28;;;16.69;100.00
73151;BME280;61354;50.758;6.106;2023-10-09T00:13:24;99649.88;;;16.71;100.00
73151;BME280;61354;50.758;6.106;2023-10-09T00:15:58;99646.34;;;16.74;100.00
73151;BME280;61354;50.758;6.106;2023-10-09T00:18:34;99643.09;;;16.72;100.00
73151;BME280;61354;50.758;6.106;2023-10-09T00:21:00;99636.31;;;16.73;100.00
73151;BME280;61354;50.758;6.106;2023-10-09T00:23:36;99644.34;;;16.74;100.00
73151;BME280;61354;50.758;6.106;2023-10-09T00:26:02;99642.66;;;16.70;100.00
73151;BME280;61354;50.758;6.106;2023-10-09T00:28:37;99639.97;;;16.77;100.00
73151;BME280;61354;50.758;6.106;2023-10-09T00:31:04;99638.72;;;16.74;100.00
73151;BME280;61354;50.758;6.106;2023-10-09T00:33:32;99638.75;;;16.78;100.00
73151;BME280;61354;50.758;6.106;2023-10-09T00:36:04;99633.84;;;16.68;100.00
73151;BME280;61354;50.758;6.106;2023-10-09T00:38:37;99638.19;;;16.61;100.00
73151;BME280;61354;50.758;6.106;2023-10-09T00:41:10;99636.88;;;16.48;100.00
73151;BME280;61354;50.758;6.106;2023-10-09T00:43:38;99634.47;;;16.50;100.00
73151;BME280;61354;50.758;6.106;2023-10-09T00:46:08;99634.53;;;16.57;100.00
73151;BME280;61354;50.758;6.106;2023-10-09T00:48:56;99623.75;;;16.59;100.00
73151;BME280;61354;50.758;6.106;2023-10-09T00:51:23;99630.53;;;16.58;100.00
73151;BME280;61354;50.758;6.106;2023-10-09T00:53:52;99625.25;;;16.50;100.00
73151;BME280;61354;50.758;6.106;2023-10-09T00:56:22;99615.69;;;16.51;100.00
73151;BME280;61354;50.758;6.106;2023-10-09T00:58:51;99615.25;;;16.49;100.00
73151;BME280;61354;50.758;6.106;2023-10-09T01:01:22;99612.84;;;16.47;100.00
73151;BME280;61354;50.758;6.106;2023-10-09T01:04:03;99608.00;;;16.44;100.00
73151;BME280;61354;50.758;6.106;2023-10-09T01:06:41;99607.28;;;16.54;100.00
73151;BME280;61354;50.758;6.106;2023-10-09T01:09:14;99607.16;;;16.40;100.00
73151;BME280;61354;50.758;6.106;2023-10-09T01:11:41;99594.34;;;16.39;100.00
73151;BME280;61354;50.758;6.106;2023-10-09T01:14:25;99593.50;;;16.35;100.00
73151;BME280;61354;50.758;6.106;2023-10-09T01:16:51;99590.25;;;16.33;100.00
73151;BME280;61354;50.758;6.106;2023-10-09T01:19:20;99600.72;;;16.36;100.00
73151;BME280;61354;50.758;6.106;2023-10-09T01:21:52;99590.25;;;16.33;100.00
73151;BME280;61354;50.758;6.106;2023-10-09T01:24:18;99587.94;;;16.38;100.00
73151;BME280;61354;50.758;6.106;2023-10-09T01:26:48;99592.69;;;16.38;100.00
73151;BME280;61354;50.758;6.106;2023-10-09T01:29:19;99589.94;;;16.41;100.00
73151;BME280;61354;50.758;6.106;2023-10-09T01:31:52;99595.94;;;16.40;100.00
73151;BME280;61354;50.758;6.106;2023-10-09T01:34:22;99584.72;;;16.40;100.00
73151;BME280;61354;50.758;6.106;2023-10-09T01:36:51;99596.00;;;16.47;100.00
73151;BME280;61354;50.758;6.106;2023-10-09T01:39:21;99596.38;;;16.46;100.00
73151;BME280;61354;50.758;6.106;2023-10-09T01:41:53;99584.81;;;16.47;100.00
73151;BME280;61354;50.758;6.106;2023-10-09T01:44:25;99595.97;;;16.44;100.00
73151;BME280;61354;50.758;6.106;2023-10-09T01:47:03;99598.38;;;16.45;100.00
73151;BME280;61354;50.758;6.106;2023-10-09T01:49:39;99584.38;;;16.45;100.00
73151;BME280;61354;50.758;6.106;2023-10-09T01:52:11;99584.81;;;16.47;100.00
73151;BME280;61354;50.758;6.106;2023-10-09T01:54:41;99582.41;;;16.49;100.00
73151;BME280;61354;50.758;6.106;2023-10-09T01:57:08;99578.00;;;16.48;100.00
73151;BME280;61354;50.758;6.106;2023-10-09T01:59:50;99571.94;;;16.46;100.00
73151;BME280;61354;50.758;6.106;2023-10-09T02:02:19;99575.19;;;16.48;100.00
73151;BME280;61354;50.758;6.106;2023-10-09T02:04:59;99579.97;;;16.44;100.00
73151;BME280;61354;50.758;6.106;2023-10-09T02:07:41;99591.97;;;16.45;100.00
73151;BME280;61354;50.758;6.106;2023-10-09T02:10:14;99599.59;;;16.44;100.00
73151;BME280;61354;50.758;6.106;2023-10-09T02:13:01;99595.22;;;16.50;100.00
73151;BME280;61354;50.758;6.106;2023-10-09T02:15:39;99591.25;;;16.51;100.00
73151;BME280;61354;50.758;6.106;2023-10-09T02:18:15;99590.47;;;16.58;100.00
73151;BME280;61354;50.758;6.106;2023-10-09T02:20:43;99592.91;;;16.59;100.00
73151;BME280;61354;50.758;6.106;2023-10-09T02:23:12;99592.88;;;16.56;100.00
73151;BME280;61354;50.758;6.106;2023-10-09T02:25:42;99589.59;;;16.50;100.00
73151;BME280;61354;50.758;6.106;2023-10-09T02:28:10;99583.63;;;16.52;100.00
73151;BME280;61354;50.758;6.106;2023-10-09T02:30:45;99590.00;;;16.49;100.00
73151;BME280;61354;50.758;6.106;2023-10-09T02:33:17;99582.41;;;16.49;100.00
73151;BME280;61354;50.758;6.106;2023-10-09T02:35:56;99582.38;;;16.46;100.00
73151;BME280;61354;50.758;6.106;2023-10-09T02:38:27;99573.59;;;16.47;100.00
73151;BME280;61354;50.758;6.106;2023-10-09T02:40:52;99573.59;;;16.47;100.00
73151;BME280;61354;50.758;6.106;2023-10-09T02:43:38;99598.38;;;16.45;100.00
73151;BME280;61354;50.758;6.106;2023-10-09T02:46:11;99590.75;;;16.42;100.00
73151;BME280;61354;50.758;6.106;2023-10-09T02:48:47;99590.38;;;16.44;100.00
73151;BME280;61354;50.758;6.106;2023-10-09T02:51:22;99591.13;;;16.40;100.00
73151;BME280;61354;50.758;6.106;2023-10-09T02:54:09;99593.53;;;16.38;100.00
73151;BME280;61354;50.758;6.106;2023-10-09T02:56:50;99600.72;;;16.36;100.00
73151;BME280;61354;50.758;6.106;2023-10-09T02:59:30;99595.09;;;16.36;100.00
73151;BME280;61354;50.758;6.106;2023-10-09T03:01:56;99591.06;;;16.30;100.00
73151;BME280;61354;50.758;6.106;2023-10-09T03:04:23;99579.41;;;16.28;100.00
73151;BME280;61354;50.758;6.106;2023-10-09T03:06:49;99585.44;;;16.30;100.00
73151;BME280;61354;50.758;6.106;2023-10-09T03:09:18;99580.59;;;16.27;100.00
73151;BME280;61354;50.758;6.106;2023-10-09T03:11:48;99586.16;;;16.23;100.00
73151;BME280;61354;50.758;6.106;2023-10-09T03:14:21;99581.81;;;16.26;100.00
73151;BME280;61354;50.758;6.106;2023-10-09T03:16:52;99578.97;;;16.22;100.00
73151;BME280;61354;50.758;6.106;2023-10-09T03:19:17;99592.56;;;16.24;100.00
73151;BME280;61354;50.758;6.106;2023-10-09T03:21:43;99588.53;;;16.18;100.00
73151;BME280;61354;50.758;6.106;2023-10-09T03:24:09;99594.13;;;16.21;100.00
73151;BME280;61354;50.758;6.106;2023-10-09T03:26:36;99590.13;;;16.19;100.00
73151;BME280;61354;50.758;6.106;2023-10-09T03:29:02;99584.53;;;16.19;100.00
73151;BME280;61354;50.758;6.106;2023-10-09T03:31:38;99589.28;;;16.14;100.00
73151;BME280;61354;50.758;6.106;2023-10-09T03:34:04;99584.44;;;16.11;100.00
73151;BME280;61354;50.758;6.106;2023-10-09T03:36:30;99590.09;;;16.15;100.00
73151;BME280;61354;50.758;6.106;2023-10-09T03:38:57;99581.28;;;16.16;100.00
73151;BME280;61354;50.758;6.106;2023-10-09T03:41:25;99579.69;;;16.15;100.00
73151;BME280;61354;50.758;6.106;2023-10-09T03:43:54;99579.63;;;16.12;100.00
73151;BME280;61354;50.758;6.106;2023-10-09T03:46:21;99586.03;;;16.12;100.00
73151;BME280;61354;50.758;6.106;2023-10-09T03:48:48;99583.69;;;16.14;100.00
73151;BME280;61354;50.758;6.106;2023-10-09T03:51:15;99576.84;;;16.12;100.00
73151;BME280;61354;50.758;6.106;2023-10-09T03:53:47;99582.00;;;16.06;100.00
73151;BME280;61354;50.758;6.106;2023-10-09T03:56:14;99578.75;;;16.04;100.00
73151;BME280;61354;50.758;6.106;2023-10-09T03:58:59;99574.72;;;15.98;100.00
73151;BME280;61354;50.758;6.106;2023-10-09T04:01:26;99571.16;;;16.05;100.00
73151;BME280;61354;50.758;6.106;2023-10-09T04:03:57;99569.94;;;16.02;100.00
73151;BME280;61354;50.758;6.106;2023-10-09T04:06:30;99570.31;;;16.01;100.00
73151;BME280;61354;50.758;6.106;2023-10-09T04:08:58;99567.47;;;15.94;100.00
73151;BME280;61354;50.758;6.106;2023-10-09T04:11:25;99573.00;;;15.90;100.00
73151;BME280;61354;50.758;6.106;2023-10-09T04:13:51;99584.16;;;15.86;100.00
73151;BME280;61354;50.758;6.106;2023-10-09T04:16:21;99583.38;;;15.86;100.00
73151;BME280;61354;50.758;6.106;2023-10-09T04:18:59;99580.13;;;15.80;100.00
73151;BME280;61354;50.758;6.106;2023-10-09T04:21:26;99568.53;;;15.82;100.00
73151;BME280;61354;50.758;6.106;2023-10-09T04:24:09;99568.88;;;15.77;100.00
73151;BME280;61354;50.758;6.106;2023-10-09T04:26:48;99567.22;;;15.76;100.00
73151;BME280;61354;50.758;6.106;2023-10-09T04:29:22;99561.63;;;15.76;100.00
73151;BME280;61354;50.758;6.106;2023-10-09T04:31:57;99556.47;;;15.78;100.00
73151;BME280;61354;50.758;6.106;2023-10-09T04:34:26;99561.63;;;15.76;100.00
73151;BME280;61354;50.758;6.106;2023-10-09T04:37:01;99572.06;;;15.79;100.00
73151;BME280;61354;50.758;6.106;2023-10-09T04:39:45;99586.94;;;15.83;100.00
73151;BME280;61354;50.758;6.106;2023-10-09T04:42:15;99582.47;;;15.78;100.00
73151;BME280;61354;50.758;6.106;2023-10-09T04:44:44;99596.47;;;15.78;100.00
73151;BME280;61354;50.758;6.106;2023-10-09T04:47:45;99603.97;;;15.71;100.00
73151;BME280;61354;50.758;6.106;2023-10-09T04:50:37;99597.28;;;15.79;100.00
73151;BME280;61354;50.758;6.106;2023-10-09T04:53:22;99585.66;;;15.77;100.00
73151;BME280;61354;50.758;6.106;2023-10-09T04:55:48;99580.91;;;15.81;100.00
73151;BME280;61354;50.758;6.106;2023-10-09T04:58:21;99578.53;;;15.83;100.00
73151;BME280;61354;50.758;6.106;2023-10-09T05:00:50;99575.38;;;15.84;100.00
73151;BME280;61354;50.758;6.106;2023-10-09T05:03:39;99574.53;;;15.84;100.00
73151;BME280;61354;50.758;6.106;2023-10-09T05:06:05;99571.38;;;15.85;100.00
73151;BME280;61354;50.758;6.106;2023-10-09T05:08:48;99561.81;;;15.90;100.00
73151;BME280;61354;50.758;6.106;2023-10-09T05:11:14;99577.00;;;15.89;100.00
73151;BME280;61354;50.758;6.106;2023-10-09T05:14:01;99566.66;;;15.93;100.00
73151;BME280;61354;50.758;6.106;2023-10-09T05:16:39;99544.25;;;15.93;100.00
73151;BME280;61354;50.758;6.106;2023-10-09T05:19:22;99542.97;;;15.87;100.00
73151;BME280;61354;50.758;6.106;2023-10-09T05:21:59;99545.34;;;15.85;100.00
73151;BME280;61354;50.758;6.106;2023-10-09T05:24:30;99541.72;;;15.81;100.00
73151;BME280;61354;50.758;6.106;2023-10-09T05:27:07;99539.31;;;15.83;100.00
73151;BME280;61354;50.758;6.106;2023-10-09T05:29:49;99540.09;;;15.80;100.00
73151;BME280;61354;50.758;6.106;2023-10-09T05:32:47;99532.03;;;15.75;100.00
73151;BME280;61354;50.758;6.106;2023-10-09T05:35:22;99536.88;;;15.78;100.00
73151;BME280;61354;50.758;6.106;2023-10-09T05:38:03;99547.69;;;15.79;100.00
73151;BME280;61354;50.758;6.106;2023-10-09T05:40:30;99547.31;;;15.81;100.00
73151;BME280;61354;50.758;6.106;2023-10-09T05:42:56;99540.53;;;15.82;100.00
73151;BME280;61354;50.758;6.106;2023-10-09T05:45:28;99542.13;;;15.83;100.00
73151;BME280;61354;50.758;6.106;2023-10-09T05:48:12;99546.44;;;15.73;100.00
73151;BME280;61354;50.758;6.106;2023-10-09T05:50:38;99550.44;;;15.76;100.00
73151;BME280;61354;50.758;6.106;2023-10-09T05:53:23;99554.44;;;15.75;100.00
73151;BME280;61354;50.758;6.106;2023-10-09T05:55:55;99566.03;;;15.73;100.00
73151;BME280;61354;50.758;6.106;2023-10-09T05:58:39;99560.03;;;15.75;100.00
73151;BME280;61354;50.758;6.106;2023-10-09T06:01:27;99556.03;;;15.76;100.00
73151;BME280;61354;50.758;6.106;2023-10-09T06:04:11;99548.47;;;15.80;100.00
73151;BME280;61354;50.758;6.106;2023-10-09T06:06:44;99544.50;;;15.81;100.00
73151;BME280;61354;50.758;6.106;2023-10-09T06:09:12;99553.66;;;15.78;100.00
73151;BME280;61354;50.758;6.106;2023-10-09T06:11:41;99549.00;;;15.89;100.00
73151;BME280;61354;50.758;6.106;2023-10-09T06:14:16;99554.59;;;15.89;100.00
73151;BME280;61354;50.758;6.106;2023-10-09T06:17:11;99557.44;;;15.93;100.00
73151;BME280;61354;50.758;6.106;2023-10-09T06:19:37;99571.44;;;15.93;100.00
73151;BME280;61354;50.758;6.106;2023-10-09T06:22:09;99569.03;;;15.91;100.00
73151;BME280;61354;50.758;6.106;2023-10-09T06:24:55;99557.41;;;15.89;100.00
73151;BME280;61354;50.758;6.106;2023-10-09T06:27:22;99570.47;;;15.78;100.00
73151;BME280;61354;50.758;6.106;2023-10-09T06:29:58;99563.31;;;15.84;100.00
73151;BME280;61354;50.758;6.106;2023-10-09T06:32:42;99557.41;;;15.89;100.00
73151;BME280;61354;50.758;6.106;2023-10-09T06:35:35;99561.47;;;15.95;100.00
73151;BME280;61354;50.758;6.106;2023-10-09T06:38:01;99556.28;;;15.97;100.00
73151;BME280;61354;50.758;6.106;2023-10-09T06:40:30;99564.34;;;16.02;100.00
73151;BME280;61354;50.758;6.106;2023-10-09T06:43:15;99557.97;;;16.05;100.00
73151;BME280;61354;50.758;6.106;2023-10-09T06:45:56;99560.38;;;16.07;100.00
73151;BME280;61354;50.758;6.106;2023-10-09T06:48:51;99557.94;;;16.02;100.00
73151;BME280;61354;50.758;6.106;2023-10-09T06:51:23;99568.41;;;16.08;100.00
73151;BME280;61354;50.758;6.106;2023-10-09T06:53:52;99578.09;;;16.14;100.00
73151;BME280;61354;50.758;6.106;2023-10-09T07:01:24;99599.66;;;16.10;100.00
73151;BME280;61354;50.758;6.106;2023-10-09T07:03:53;99634.03;;;16.07;100.00
73151;BME280;61354;50.758;6.106;2023-10-09T07:06:20;99605.66;;;16.12;100.00
73151;BME280;61354;50.758;6.106;2023-10-09T07:09:01;99620.47;;;16.09;100.00
73151;BME280;61354;50.758;6.106;2023-10-09T07:11:36;99620.38;;;16.02;100.00
73151;BME280;61354;50.758;6.106;2023-10-09T07:14:10;99601.97;;;16.05;100.00
73151;BME280;61354;50.758;6.106;2023-10-09T07:17:00;99621.16;;;16.03;100.00
73151;BME280;61354;50.758;6.106;2023-10-09T07:19:32;99622.66;;;15.93;100.00
73151;BME280;61354;50.758;6.106;2023-10-09T07:22:24;99628.38;;;16.04;100.00
73151;BME280;61354;50.758;6.106;2023-10-09T07:24:56;99617.66;;;16.09;100.00
73151;BME280;61354;50.758;6.106;2023-10-09T07:27:22;99630.81;;;16.05;100.00
73151;BME280;61354;50.758;6.106;2023-10-09T07:30:09;99630.03;;;16.08;100.00
73151;BME280;61354;50.758;6.106;2023-10-09T07:33:06;99636.47;;;16.12;100.00
73151;BME280;61354;50.758;6.106;2023-10-09T07:35:35;99637.72;;;16.15;100.00
73151;BME280;61354;50.758;6.106;2023-10-09T07:40:36;99640.56;;;16.19;100.00
73151;BME280;61354;50.758;6.106;2023-10-09T07:43:20;99630.16;;;16.19;100.00
73151;BME280;61354;50.758;6.106;2023-10-09T07:45:52;99631.03;;;16.27;100.00
73151;BME280;61354;50.758;6.106;2023-10-09T07:48:24;99629.44;;;16.26;100.00
73151;BME280;61354;50.758;6.106;2023-10-09T07:50:54;99630.66;;;16.28;100.00
73151;BME280;61354;50.758;6.106;2023-10-09T07:53:23;99629.44;;;16.29;100.00
73151;BME280;61354;50.758;6.106;2023-10-09T07:55:52;99638.34;;;16.35;100.00
73151;BME280;61354;50.758;6.106;2023-10-09T07:58:27;99631.50;;;16.32;100.00
73151;BME280;61354;50.758;6.106;2023-10-09T08:00:54;99625.50;;;16.34;100.00
73151;BME280;61354;50.758;6.106;2023-10-09T08:03:35;99631.09;;;16.34;100.00
73151;BME280;61354;50.758;6.106;2023-10-09T08:06:02;99637.59;;;16.41;100.00
73151;BME280;61354;50.758;6.106;2023-10-09T08:08:46;99638.38;;;16.42;100.00
73151;BME280;61354;50.758;6.106;2023-10-09T08:11:27;99645.47;;;16.29;100.00
73151;BME280;61354;50.758;6.106;2023-10-09T08:14:14;99639.22;;;16.43;100.00
73151;BME280;61354;50.758;6.106;2023-10-09T08:16:58;99639.63;;;16.45;100.00
73151;BME280;61354;50.758;6.106;2023-10-09T08:19:49;99640.06;;;16.50;100.00
73151;BME280;61354;50.758;6.106;2023-10-09T08:22:30;99652.97;;;16.55;100.00
73151;BME280;61354;50.758;6.106;2023-10-09T08:24:56;99660.22;;;16.59;100.00
73151;BME280;61354;50.758;6.106;2023-10-09T08:27:26;99655.50;;;16.71;100.00
73151;BME280;61354;50.758;6.106;2023-10-09T08:30:05;99662.81;;;16.79;100.00
73151;BME280;61354;50.758;6.106;2023-10-09T08:32:48;99662.00;;;16.78;100.00
73151;BME280;61354;50.758;6.106;2023-10-09T08:35:43;99674.03;;;16.79;100.00
73151;BME280;61354;50.758;6.106;2023-10-09T08:38:13;99662.47;;;16.84;100.00
73151;BME280;61354;50.758;6.106;2023-10-09T08:40:41;99657.22;;;16.82;100.00
73151;BME280;61354;50.758;6.106;2023-10-09T08:43:18;99638.47;;;16.90;100.00
73151;BME280;61354;50.758;6.106;2023-10-09T08:45:54;99639.34;;;16.98;100.00
73151;BME280;61354;50.758;6.106;2023-10-09T08:48:27;99633.38;;;17.06;100.00
73151;BME280;61354;50.758;6.106;2023-10-09T08:50:55;99634.16;;;17.03;100.00
73151;BME280;61354;50.758;6.106;2023-10-09T08:53:22;99633.00;;;17.11;100.00
73151;BME280;61354;50.758;6.106;2023-10-09T08:55:49;99630.22;;;17.15;100.00
73151;BME280;61354;50.758;6.106;2023-10-09T08:58:17;99614.56;;;17.10;100.00
73151;BME280;61354;50.758;6.106;2023-10-09T09:00:56;99618.22;;;17.14;100.00
73151;BME280;61354;50.758;6.106;2023-10-09T09:03:24;99613.44;;;17.22;100.00
73151;BME280;61354;50.758;6.106;2023-10-09T09:06:01;99618.69;;;17.27;100.00
73151;BME280;61354;50.758;6.106;2023-10-09T09:08:29;99617.47;;;17.28;100.00
73151;BME280;61354;50.758;6.106;2023-10-09T09:11:21;99611.06;;;17.28;100.00
73151;BME280;61354;50.758;6.106;2023-10-09T09:16:30;99605.47;;;17.31;100.00
73151;BME280;61354;50.758;6.106;2023-10-09T09:19:00;99614.31;;;17.30;100.00
73151;BME280;61354;50.758;6.106;2023-10-09T09:21:31;99619.13;;;17.29;100.00
73151;BME280;61354;50.758;6.106;2023-10-09T09:24:02;99626.75;;;17.36;100.00
73151;BME280;61354;50.758;6.106;2023-10-09T09:26:36;99631.22;;;17.44;100.00
73151;BME280;61354;50.758;6.106;2023-10-09T09:29:06;99622.41;;;17.49;100.00
73151;BME280;61354;50.758;6.106;2023-10-09T09:31:35;99618.91;;;17.63;100.00
73151;BME280;61354;50.758;6.106;2023-10-09T09:34:06;99617.72;;;17.71;100.00
73151;BME280;61354;50.758;6.106;2023-10-09T09:36:56;99602.06;;;17.74;100.00
73151;BME280;61354;50.758;6.106;2023-10-09T09:39:24;99596.94;;;17.86;100.00
73151;BME280;61354;50.758;6.106;2023-10-09T09:42:00;99600.19;;;17.99;99.74
73151;BME280;61354;50.758;6.106;2023-10-09T09:44:33;99599.41;;;18.02;99.44
73151;BME280;61354;50.758;6.106;2023-10-09T09:47:11;99593.03;;;18.12;98.32
73151;BME280;61354;50.758;6.106;2023-10-09T09:49:41;99598.63;;;18.20;95.86
73151;BME280;61354;50.758;6.106;2023-10-09T09:52:08;99598.25;;;18.32;96.27
73151;BME280;61354;50.758;6.106;2023-10-09T09:54:38;99602.69;;;18.36;95.17
73151;BME280;61354;50.758;6.106;2023-10-09T09:57:09;99602.72;;;18.47;94.51
73151;BME280;61354;50.758;6.106;2023-10-09T09:59:40;99600.31;;;18.56;92.72
73151;BME280;61354;50.758;6.106;2023-10-09T10:02:20;99600.34;;;18.71;92.47
73151;BME280;61354;50.758;6.106;2023-10-09T10:04:52;99596.34;;;18.79;88.72
73151;BME280;61354;50.758;6.106;2023-10-09T10:07:21;99601.97;;;18.79;84.79
73151;BME280;61354;50.758;6.106;2023-10-09T10:09:48;99602.75;;;19.01;86.95
73151;BME280;61354;50.758;6.106;2023-10-09T10:15:57;99603.50;;;19.30;82.41
73151;BME280;61354;50.758;6.106;2023-10-09T10:18:23;99592.22;;;19.37;82.63
73151;BME280;61354;50.758;6.106;2023-10-09T10:23:40;99584.16;;;19.39;81.37
73151;BME280;61354;50.758;6.106;2023-10-09T10:26:26;99581.75;;;19.41;80.12
73151;BME280;61354;50.758;6.106;2023-10-09T10:29:14;99581.75;;;19.41;79.97
73151;BME280;61354;50.758;6.106;2023-10-09T10:34:17;99577.66;;;19.60;80.55
73151;BME280;61354;50.758;6.106;2023-10-09T10:36:50;99580.09;;;19.61;79.11
73151;BME280;61354;50.758;6.106;2023-10-09T10:39:24;99582.03;;;19.79;78.97
73151;BME280;61354;50.758;6.106;2023-10-09T10:42:08;99573.53;;;19.86;78.95
73151;BME280;61354;50.758;6.106;2023-10-09T10:45:03;99571.13;;;19.88;76.32
73151;BME280;61354;50.758;6.106;2023-10-09T10:47:49;99560.22;;;19.90;76.01
73151;BME280;61354;50.758;6.106;2023-10-09T10:50:17;99563.00;;;19.97;76.38
73151;BME280;61354;50.758;6.106;2023-10-09T10:53:16;99562.59;;;19.99;75.75
73151;BME280;61354;50.758;6.106;2023-10-09T10:56:02;99544.47;;;20.00;73.44
73151;BME280;61354;50.758;6.106;2023-10-09T10:58:40;99548.88;;;20.04;72.37
73151;BME280;61354;50.758;6.106;2023-10-09T11:01:24;99551.28;;;20.06;72.79
73151;BME280;61354;50.758;6.106;2023-10-09T11:04:16;99549.66;;;20.08;72.50
73151;BME280;61354;50.758;6.106;2023-10-09T11:06:53;99553.31;;;20.05;72.82
73151;BME280;61354;50.758;6.106;2023-10-09T11:09:25;99554.97;;;19.99;71.77
73151;BME280;61354;50.758;6.106;2023-10-09T11:12:05;99556.59;;;19.93;70.16
73151;BME280;61354;50.758;6.106;2023-10-09T11:14:49;99563.41;;;19.99;71.51
73151;BME280;61354;50.758;6.106;2023-10-09T11:17:35;99573.91;;;19.95;71.08
73151;BME280;61354;50.758;6.106;2023-10-09T11:20:04;99571.03;;;20.02;71.20
73151;BME280;61354;50.758;6.106;2023-10-09T11:22:50;99571.03;;;20.02;69.42
73151;BME280;61354;50.758;6.106;2023-10-09T11:25:45;99573.06;;;19.98;71.08
73151;BME280;61354;50.758;6.106;2023-10-09T11:28:22;99573.84;;;20.02;69.27
73151;BME280;61354;50.758;6.106;2023-10-09T11:31:09;99569.00;;;20.06;69.06
73151;BME280;61354;50.758;6.106;2023-10-09T11:34:17;99571.00;;;20.09;68.86
73151;BME280;61354;50.758;6.106;2023-10-09T11:36:48;99572.69;;;20.00;66.12
73151;BME280;61354;50.758;6.106;2023-10-09T11:39:26;99569.00;;;20.03;64.41
73151;BME280;61354;50.758;6.106;2023-10-09T11:42:07;99580.66;;;20.12;64.20
73151;BME280;61354;50.758;6.106;2023-10-09T11:44:42;99570.19;;;20.13;65.60
73151;BME280;61354;50.758;6.106;2023-10-09T11:47:11;99580.97;;;20.25;66.56
73151;BME280;61354;50.758;6.106;2023-10-09T11:49:54;99575.72;;;20.27;66.10
73151;BME280;61354;50.758;6.106;2023-10-09T11:52:26;99569.69;;;20.25;66.04
73151;BME280;61354;50.758;6.106;2023-10-09T11:55:05;99571.66;;;20.31;66.03
73151;BME280;61354;50.758;6.106;2023-10-09T11:57:42;99570.00;;;20.41;65.43
73151;BME280;61354;50.758;6.106;2023-10-09T12:00:08;99568.78;;;20.39;65.09
73151;BME280;61354;50.758;6.106;2023-10-09T12:02:54;99579.28;;;20.38;65.63
73151;BME280;61354;50.758;6.106;2023-10-09T12:05:20;99575.28;;;20.32;64.55
73151;BME280;61354;50.758;6.106;2023-10-09T12:07:46;99577.25;;;20.39;65.73
73151;BME280;61354;50.758;6.106;2023-10-09T12:10:12;99578.47;;;20.41;66.45
73151;BME280;61354;50.758;6.106;2023-10-09T12:12:41;99573.63;;;20.42;66.60
73151;BME280;61354;50.758;6.106;2023-10-09T12:15:12;99580.03;;;20.49;65.95
73151;BME280;61354;50.758;6.106;2023-10-09T12:17:44;99572.34;;;20.53;68.03
73151;BME280;61354;50.758;6.106;2023-10-09T12:20:18;99576.78;;;20.54;68.09
73151;BME280;61354;50.758;6.106;2023-10-09T12:22:59;99565.06;;;20.56;66.19
73151;BME280;61354;50.758;6.106;2023-10-09T12:25:26;99565.84;;;20.56;66.37
73151;BME280;61354;50.758;6.106;2023-10-09T12:27:52;99574.41;;;20.49;64.49
73151;BME280;61354;50.758;6.106;2023-10-09T12:30:20;99570.78;;;20.49;65.04
73151;BME280;61354;50.758;6.106;2023-10-09T12:32:55;99560.19;;;20.60;65.68
73151;BME280;61354;50.758;6.106;2023-10-09T12:35:26;99571.06;;;20.62;65.67
73151;BME280;61354;50.758;6.106;2023-10-09T12:37:52;99575.09;;;20.60;65.32
73151;BME280;61354;50.758;6.106;2023-10-09T12:40:21;99571.50;;;20.56;65.95
73151;BME280;61354;50.758;6.106;2023-10-09T12:42:51;99563.94;;;20.43;65.57
73151;BME280;61354;50.758;6.106;2023-10-09T12:45:19;99568.94;;;20.73;67.74
73151;BME280;61354;50.758;6.106;2023-10-09T12:47:54;99577.03;;;20.71;67.45
73151;BME280;61354;50.758;6.106;2023-10-09T12:50:35;99575.88;;;20.65;67.86
73151;BME280;61354;50.758;6.106;2023-10-09T12:53:08;99562.47;;;20.76;67.03
73151;BME280;61354;50.758;6.106;2023-10-09T12:55:37;99569.03;;;20.66;68.34
73151;BME280;61354;50.758;6.106;2023-10-09T12:58:06;99566.81;;;20.88;68.37
73151;BME280;61354;50.758;6.106;2023-10-09T13:00:37;99570.56;;;20.74;67.64
73151;BME280;61354;50.758;6.106;2023-10-09T13:03:05;99563.78;;;20.64;68.55
73151;BME280;61354;50.758;6.106;2023-10-09T13:05:43;99570.31;;;20.57;69.69
73151;BME280;61354;50.758;6.106;2023-10-09T13:08:21;99568.25;;;20.62;67.86
73151;BME280;61354;50.758;6.106;2023-10-09T13:10:51;99573.94;;;20.54;69.34
73151;BME280;61354;50.758;6.106;2023-10-09T13:13:25;99567.13;;;20.48;70.18
73151;BME280;61354;50.758;6.106;2023-10-09T13:16:02;99564.34;;;20.41;69.71
73151;BME280;61354;50.758;6.106;2023-10-09T13:18:31;99565.13;;;20.45;70.36
73151;BME280;61354;50.758;6.106;2023-10-09T13:20:57;99560.31;;;20.42;67.11
73151;BME280;61354;50.758;6.106;2023-10-09T13:23:22;99563.13;;;20.42;67.08
73151;BME280;61354;50.758;6.106;2023-10-09T13:25:59;99565.13;;;20.49;67.96
73151;BME280;61354;50.758;6.106;2023-10-09T13:28:31;99575.63;;;20.41;66.96
73151;BME280;61354;50.758;6.106;2023-10-09T13:30:57;99582.13;;;20.34;69.92
73151;BME280;61354;50.758;6.106;2023-10-09T13:33:22;99586.13;;;20.37;67.23
73151;BME280;61354;50.758;6.106;2023-10-09T13:35:48;99579.75;;;20.26;66.23
73151;BME280;61354;50.758;6.106;2023-10-09T13:38:16;99585.44;;;20.19;68.62
73151;BME280;61354;50.758;6.106;2023-10-09T13:40:42;99572.53;;;20.25;65.90
73151;BME280;61354;50.758;6.106;2023-10-09T13:43:07;99579.78;;;20.19;64.52
73151;BME280;61354;50.758;6.106;2023-10-09T13:45:41;99586.69;;;20.10;66.22
73151;BME280;61354;50.758;6.106;2023-10-09T13:48:14;99583.47;;;20.16;64.50